Los Fuertes, Colorado
Current Conditions -  °F | °C
As of 8:51 AM on Friday 28 Nov 2014 (Local Time) from KVTP Reporting Station
Clear Clear  
Wind Chill: 24°   Ceiling: Unl
Heat Index: 34°   Visibility: 10mi
Dew Point: 10°   Wind: 15mph
Humidity: 38%   Direction: 200°SSW
Pressure: 30.21"   Gusts: 26mph
Location:  37.1568°N, 105.289°W
Report Text: KVTP 281551Z AUTO 20013G23KT 150V230 10SM CLR 01/M12 A3021 RMK AO2
Loading
Personal Weather Stations






























Interactive Weather Map New forecast layout! Learn more

10-Day Weather Forecast

Advertisements
Track Severe Weather on mobile